Pottsville, Texas
Current Conditions -  °F | °C
As of 6:35 PM on Friday 24 Oct 2014 (Local Time) from KMNZ Reporting Station
Clear Clear  
Wind Chill: 80°   Ceiling: Unl
Heat Index: 80°   Visibility: 10mi
Dew Point: 57°   Wind: 6mph
Humidity: 46%   Direction: 170°S
Pressure: 30.1"   Gusts: NA
Location:  31.67°N, 98.33°W
Report Text: KMNZ 242335Z AUTO 17005KT 10SM CLR 27/14 A3010 RMK AO2 T02650141
Loading
Personal Weather Stations






























Interactive Weather Map New forecast layout! Learn more

10-Day Weather Forecast

Advertisements
Track Severe Weather on mobile